sensor_id;sensor_type;location;lat;lon;timestamp;P1;durP1;ratioP1;P2;durP2;ratioP2
8159;SDS011;27404;52.398;9.646;2023-06-22T00:01:48;15.53;;;13.93;;
8159;SDS011;27404;52.398;9.646;2023-06-22T00:04:14;15.53;;;13.83;;
8159;SDS011;27404;52.398;9.646;2023-06-22T00:06:40;14.13;;;12.73;;
8159;SDS011;27404;52.398;9.646;2023-06-22T00:09:05;14.27;;;12.70;;
8159;SDS011;27404;52.398;9.646;2023-06-22T00:11:32;14.73;;;13.13;;
8159;SDS011;27404;52.398;9.646;2023-06-22T00:13:58;16.30;;;13.47;;
8159;SDS011;27404;52.398;9.646;2023-06-22T00:16:24;14.33;;;12.90;;
8159;SDS011;27404;52.398;9.646;2023-06-22T00:18:50;13.80;;;12.40;;
8159;SDS011;27404;52.398;9.646;2023-06-22T00:21:15;14.17;;;12.77;;
8159;SDS011;27404;52.398;9.646;2023-06-22T00:23:41;15.13;;;13.63;;
8159;SDS011;27404;52.398;9.646;2023-06-22T00:26:07;13.70;;;12.33;;
8159;SDS011;27404;52.398;9.646;2023-06-22T00:28:34;13.87;;;12.47;;
8159;SDS011;27404;52.398;9.646;2023-06-22T00:30:59;14.87;;;12.23;;
8159;SDS011;27404;52.398;9.646;2023-06-22T00:33:25;14.63;;;13.13;;
8159;SDS011;27404;52.398;9.646;2023-06-22T00:35:51;14.27;;;12.30;;
8159;SDS011;27404;52.398;9.646;2023-06-22T00:38:18;15.23;;;12.00;;
8159;SDS011;27404;52.398;9.646;2023-06-22T00:40:44;14.60;;;13.03;;
8159;SDS011;27404;52.398;9.646;2023-06-22T00:43:09;13.97;;;12.57;;
8159;SDS011;27404;52.398;9.646;2023-06-22T00:45:35;15.13;;;13.43;;
8159;SDS011;27404;52.398;9.646;2023-06-22T00:48:01;14.77;;;13.17;;
8159;SDS011;27404;52.398;9.646;2023-06-22T00:50:28;16.27;;;14.03;;
8159;SDS011;27404;52.398;9.646;2023-06-22T00:52:58;15.60;;;14.00;;
8159;SDS011;27404;52.398;9.646;2023-06-22T00:55:26;16.53;;;13.23;;
8159;SDS011;27404;52.398;9.646;2023-06-22T00:57:52;16.40;;;13.87;;
8159;SDS011;27404;52.398;9.646;2023-06-22T01:00:21;14.47;;;12.43;;
8159;SDS011;27404;52.398;9.646;2023-06-22T01:02:49;17.03;;;13.40;;
8159;SDS011;27404;52.398;9.646;2023-06-22T01:05:17;16.03;;;13.43;;
8159;SDS011;27404;52.398;9.646;2023-06-22T01:07:53;16.63;;;12.90;;
8159;SDS011;27404;52.398;9.646;2023-06-22T01:10:45;17.97;;;13.37;;
8159;SDS011;27404;52.398;9.646;2023-06-22T01:13:32;14.80;;;13.23;;
8159;SDS011;27404;52.398;9.646;2023-06-22T01:16:12;14.80;;;13.13;;
8159;SDS011;27404;52.398;9.646;2023-06-22T01:19:00;13.93;;;12.43;;
8159;SDS011;27404;52.398;9.646;2023-06-22T01:21:30;13.97;;;12.57;;
8159;SDS011;27404;52.398;9.646;2023-06-22T01:24:10;15.17;;;13.60;;
8159;SDS011;27404;52.398;9.646;2023-06-22T01:27:23;15.00;;;13.40;;
8159;SDS011;27404;52.398;9.646;2023-06-22T01:29:55;14.30;;;12.77;;
8159;SDS011;27404;52.398;9.646;2023-06-22T01:32:31;13.40;;;12.00;;
8159;SDS011;27404;52.398;9.646;2023-06-22T01:35:00;13.63;;;12.23;;
8159;SDS011;27404;52.398;9.646;2023-06-22T01:37:28;13.23;;;11.73;;
8159;SDS011;27404;52.398;9.646;2023-06-22T01:39:57;13.03;;;11.73;;
8159;SDS011;27404;52.398;9.646;2023-06-22T01:42:23;14.97;;;12.37;;
8159;SDS011;27404;52.398;9.646;2023-06-22T01:44:51;14.77;;;12.37;;
8159;SDS011;27404;52.398;9.646;2023-06-22T01:47:18;15.57;;;12.17;;
8159;SDS011;27404;52.398;9.646;2023-06-22T01:49:45;13.83;;;12.30;;
8159;SDS011;27404;52.398;9.646;2023-06-22T01:52:11;12.63;;;11.07;;
8159;SDS011;27404;52.398;9.646;2023-06-22T01:54:37;13.60;;;12.20;;
8159;SDS011;27404;52.398;9.646;2023-06-22T01:57:05;13.60;;;11.87;;
8159;SDS011;27404;52.398;9.646;2023-06-22T01:59:39;14.80;;;11.90;;
8159;SDS011;27404;52.398;9.646;2023-06-22T02:02:27;13.43;;;11.90;;
8159;SDS011;27404;52.398;9.646;2023-06-22T02:04:59;12.63;;;11.33;;
8159;SDS011;27404;52.398;9.646;2023-06-22T02:07:52;13.30;;;11.90;;
8159;SDS011;27404;52.398;9.646;2023-06-22T02:10:25;13.77;;;11.67;;
8159;SDS011;27404;52.398;9.646;2023-06-22T02:12:53;12.07;;;10.87;;
8159;SDS011;27404;52.398;9.646;2023-06-22T02:15:19;13.97;;;11.70;;
8159;SDS011;27404;52.398;9.646;2023-06-22T02:17:46;13.83;;;11.43;;
8159;SDS011;27404;52.398;9.646;2023-06-22T02:20:13;12.00;;;10.80;;
8159;SDS011;27404;52.398;9.646;2023-06-22T02:22:40;13.90;;;11.47;;
8159;SDS011;27404;52.398;9.646;2023-06-22T02:25:05;14.53;;;11.73;;
8159;SDS011;27404;52.398;9.646;2023-06-22T02:27:31;14.40;;;11.57;;
8159;SDS011;27404;52.398;9.646;2023-06-22T02:29:57;13.77;;;12.20;;
8159;SDS011;27404;52.398;9.646;2023-06-22T02:32:22;12.70;;;11.50;;
8159;SDS011;27404;52.398;9.646;2023-06-22T02:34:48;12.27;;;10.97;;
8159;SDS011;27404;52.398;9.646;2023-06-22T02:37:13;14.70;;;11.77;;
8159;SDS011;27404;52.398;9.646;2023-06-22T02:39:39;12.57;;;11.27;;
8159;SDS011;27404;52.398;9.646;2023-06-22T02:42:05;15.70;;;12.73;;
8159;SDS011;27404;52.398;9.646;2023-06-22T02:44:31;14.07;;;12.50;;
8159;SDS011;27404;52.398;9.646;2023-06-22T02:46:56;13.83;;;12.40;;
8159;SDS011;27404;52.398;9.646;2023-06-22T02:49:22;12.53;;;11.33;;
8159;SDS011;27404;52.398;9.646;2023-06-22T02:51:48;14.17;;;12.67;;
8159;SDS011;27404;52.398;9.646;2023-06-22T02:54:14;12.93;;;11.63;;
8159;SDS011;27404;52.398;9.646;2023-06-22T02:56:39;14.43;;;12.43;;
8159;SDS011;27404;52.398;9.646;2023-06-22T02:59:05;14.37;;;12.73;;
8159;SDS011;27404;52.398;9.646;2023-06-22T03:01:31;13.30;;;11.87;;
8159;SDS011;27404;52.398;9.646;2023-06-22T03:04:04;17.93;;;12.57;;
8159;SDS011;27404;52.398;9.646;2023-06-22T03:06:30;12.77;;;11.40;;
8159;SDS011;27404;52.398;9.646;2023-06-22T03:08:59;14.10;;;12.70;;
8159;SDS011;27404;52.398;9.646;2023-06-22T03:11:26;13.50;;;11.90;;
8159;SDS011;27404;52.398;9.646;2023-06-22T03:13:52;14.27;;;12.33;;
8159;SDS011;27404;52.398;9.646;2023-06-22T03:16:18;13.37;;;12.00;;
8159;SDS011;27404;52.398;9.646;2023-06-22T03:18:44;14.70;;;12.20;;
8159;SDS011;27404;52.398;9.646;2023-06-22T03:21:10;13.23;;;11.83;;
8159;SDS011;27404;52.398;9.646;2023-06-22T03:23:35;13.90;;;12.50;;
8159;SDS011;27404;52.398;9.646;2023-06-22T03:26:01;19.70;;;13.90;;
8159;SDS011;27404;52.398;9.646;2023-06-22T03:28:27;14.63;;;13.13;;
8159;SDS011;27404;52.398;9.646;2023-06-22T03:30:53;14.63;;;12.90;;
8159;SDS011;27404;52.398;9.646;2023-06-22T03:33:18;13.87;;;12.47;;
8159;SDS011;27404;52.398;9.646;2023-06-22T03:35:44;13.33;;;11.73;;
8159;SDS011;27404;52.398;9.646;2023-06-22T03:38:09;14.13;;;12.07;;
8159;SDS011;27404;52.398;9.646;2023-06-22T03:40:35;14.20;;;12.10;;
8159;SDS011;27404;52.398;9.646;2023-06-22T03:43:00;13.90;;;12.43;;
8159;SDS011;27404;52.398;9.646;2023-06-22T03:45:26;14.03;;;12.63;;
8159;SDS011;27404;52.398;9.646;2023-06-22T03:47:51;14.47;;;12.73;;
8159;SDS011;27404;52.398;9.646;2023-06-22T03:50:17;12.93;;;11.53;;
8159;SDS011;27404;52.398;9.646;2023-06-22T03:52:45;15.60;;;13.33;;
8159;SDS011;27404;52.398;9.646;2023-06-22T03:55:10;14.43;;;12.27;;
8159;SDS011;27404;52.398;9.646;2023-06-22T03:57:36;13.60;;;12.17;;
8159;SDS011;27404;52.398;9.646;2023-06-22T04:00:01;13.07;;;11.37;;
8159;SDS011;27404;52.398;9.646;2023-06-22T04:02:30;14.07;;;12.57;;
8159;SDS011;27404;52.398;9.646;2023-06-22T04:04:55;14.37;;;12.13;;
8159;SDS011;27404;52.398;9.646;2023-06-22T04:07:21;13.13;;;11.83;;
8159;SDS011;27404;52.398;9.646;2023-06-22T04:09:46;13.27;;;11.60;;
8159;SDS011;27404;52.398;9.646;2023-06-22T04:12:12;11.47;;;10.27;;
8159;SDS011;27404;52.398;9.646;2023-06-22T04:14:37;11.90;;;10.20;;
8159;SDS011;27404;52.398;9.646;2023-06-22T04:17:03;11.90;;;10.70;;
8159;SDS011;27404;52.398;9.646;2023-06-22T04:19:29;11.20;;;10.00;;
8159;SDS011;27404;52.398;9.646;2023-06-22T04:21:54;12.23;;;11.00;;
8159;SDS011;27404;52.398;9.646;2023-06-22T04:24:20;14.13;;;11.27;;
8159;SDS011;27404;52.398;9.646;2023-06-22T04:26:45;12.10;;;10.63;;
8159;SDS011;27404;52.398;9.646;2023-06-22T04:29:12;11.47;;;10.27;;
8159;SDS011;27404;52.398;9.646;2023-06-22T04:31:37;12.70;;;10.80;;
8159;SDS011;27404;52.398;9.646;2023-06-22T04:34:03;12.20;;;10.90;;
8159;SDS011;27404;52.398;9.646;2023-06-22T04:36:37;11.67;;;10.30;;
8159;SDS011;27404;52.398;9.646;2023-06-22T04:39:09;11.87;;;10.20;;
8159;SDS011;27404;52.398;9.646;2023-06-22T04:41:36;14.00;;;11.13;;
8159;SDS011;27404;52.398;9.646;2023-06-22T04:44:15;11.00;;;9.93;;
8159;SDS011;27404;52.398;9.646;2023-06-22T04:46:51;11.50;;;10.40;;
8159;SDS011;27404;52.398;9.646;2023-06-22T04:49:19;12.23;;;9.95;;
8159;SDS011;27404;52.398;9.646;2023-06-22T04:51:46;11.27;;;10.13;;
8159;SDS011;27404;52.398;9.646;2023-06-22T04:54:11;10.82;;;9.73;;
8159;SDS011;27404;52.398;9.646;2023-06-22T04:56:37;10.15;;;9.15;;
8159;SDS011;27404;52.398;9.646;2023-06-22T04:59:06;9.82;;;8.82;;
8159;SDS011;27404;52.398;9.646;2023-06-22T05:01:31;10.48;;;9.07;;
8159;SDS011;27404;52.398;9.646;2023-06-22T05:03:57;11.85;;;9.93;;
8159;SDS011;27404;52.398;9.646;2023-06-22T05:06:26;12.77;;;9.80;;
8159;SDS011;27404;52.398;9.646;2023-06-22T05:08:55;11.27;;;9.65;;
8159;SDS011;27404;52.398;9.646;2023-06-22T05:11:24;10.48;;;9.38;;
8159;SDS011;27404;52.398;9.646;2023-06-22T05:13:50;9.60;;;8.60;;
8159;SDS011;27404;52.398;9.646;2023-06-22T05:16:16;10.38;;;9.05;;
8159;SDS011;27404;52.398;9.646;2023-06-22T05:18:41;10.52;;;9.43;;
8159;SDS011;27404;52.398;9.646;2023-06-22T05:21:08;10.02;;;9.00;;
8159;SDS011;27404;52.398;9.646;2023-06-22T05:23:34;10.55;;;9.15;;
8159;SDS011;27404;52.398;9.646;2023-06-22T05:25:59;9.25;;;8.35;;
8159;SDS011;27404;52.398;9.646;2023-06-22T05:28:25;10.25;;;7.78;;
8159;SDS011;27404;52.398;9.646;2023-06-22T05:30:50;8.68;;;7.88;;
8159;SDS011;27404;52.398;9.646;2023-06-22T05:33:15;10.15;;;8.13;;
8159;SDS011;27404;52.398;9.646;2023-06-22T05:35:41;12.68;;;8.60;;
8159;SDS011;27404;52.398;9.646;2023-06-22T05:38:07;7.95;;;7.15;;
8159;SDS011;27404;52.398;9.646;2023-06-22T05:40:33;9.23;;;8.25;;
8159;SDS011;27404;52.398;9.646;2023-06-22T05:42:58;9.57;;;8.48;;
8159;SDS011;27404;52.398;9.646;2023-06-22T05:45:25;9.15;;;8.25;;
8159;SDS011;27404;52.398;9.646;2023-06-22T05:47:51;8.60;;;7.70;;
8159;SDS011;27404;52.398;9.646;2023-06-22T05:50:16;7.60;;;6.88;;
8159;SDS011;27404;52.398;9.646;2023-06-22T05:52:42;9.27;;;6.70;;
8159;SDS011;27404;52.398;9.646;2023-06-22T05:55:07;8.52;;;7.63;;
8159;SDS011;27404;52.398;9.646;2023-06-22T05:57:33;9.45;;;7.45;;
8159;SDS011;27404;52.398;9.646;2023-06-22T05:59:58;9.07;;;7.47;;
8159;SDS011;27404;52.398;9.646;2023-06-22T06:02:24;8.43;;;7.22;;
8159;SDS011;27404;52.398;9.646;2023-06-22T06:04:50;8.52;;;7.63;;
8159;SDS011;27404;52.398;9.646;2023-06-22T06:07:17;8.93;;;7.35;;
8159;SDS011;27404;52.398;9.646;2023-06-22T06:09:43;7.72;;;6.93;;
8159;SDS011;27404;52.398;9.646;2023-06-22T06:12:08;7.95;;;7.15;;
8159;SDS011;27404;52.398;9.646;2023-06-22T06:14:34;12.02;;;6.95;;
8159;SDS011;27404;52.398;9.646;2023-06-22T06:16:59;7.45;;;6.15;;
8159;SDS011;27404;52.398;9.646;2023-06-22T06:19:25;8.63;;;6.25;;
8159;SDS011;27404;52.398;9.646;2023-06-22T06:21:50;7.35;;;6.00;;
8159;SDS011;27404;52.398;9.646;2023-06-22T06:24:16;8.43;;;5.85;;
8159;SDS011;27404;52.398;9.646;2023-06-22T06:26:41;6.55;;;5.40;;
8159;SDS011;27404;52.398;9.646;2023-06-22T06:29:07;9.07;;;6.40;;
8159;SDS011;27404;52.398;9.646;2023-06-22T06:31:32;7.57;;;6.13;;
8159;SDS011;27404;52.398;9.646;2023-06-22T06:33:58;6.97;;;5.90;;
8159;SDS011;27404;52.398;9.646;2023-06-22T06:36:23;8.18;;;6.18;;
8159;SDS011;27404;52.398;9.646;2023-06-22T06:38:49;6.05;;;5.38;;
8159;SDS011;27404;52.398;9.646;2023-06-22T06:41:15;7.28;;;4.93;;
8159;SDS011;27404;52.398;9.646;2023-06-22T06:43:41;7.60;;;4.40;;
8159;SDS011;27404;52.398;9.646;2023-06-22T06:46:08;5.97;;;3.97;;
8159;SDS011;27404;52.398;9.646;2023-06-22T06:48:34;6.85;;;4.22;;
8159;SDS011;27404;52.398;9.646;2023-06-22T06:51:00;6.50;;;4.25;;
8159;SDS011;27404;52.398;9.646;2023-06-22T06:53:25;4.20;;;3.72;;
8159;SDS011;27404;52.398;9.646;2023-06-22T06:55:51;6.13;;;4.47;;
8159;SDS011;27404;52.398;9.646;2023-06-22T06:58:16;6.13;;;4.35;;
8159;SDS011;27404;52.398;9.646;2023-06-22T07:00:42;8.32;;;3.95;;
8159;SDS011;27404;52.398;9.646;2023-06-22T07:03:08;8.02;;;4.07;;
8159;SDS011;27404;52.398;9.646;2023-06-22T07:05:34;16.02;;;4.88;;
8159;SDS011;27404;52.398;9.646;2023-06-22T07:08:00;6.43;;;4.50;;
8159;SDS011;27404;52.398;9.646;2023-06-22T07:10:26;8.98;;;4.30;;
8159;SDS011;27404;52.398;9.646;2023-06-22T07:12:51;6.43;;;4.95;;
8159;SDS011;27404;52.398;9.646;2023-06-22T07:15:17;6.38;;;4.10;;
8159;SDS011;27404;52.398;9.646;2023-06-22T07:17:42;10.30;;;4.35;;
8159;SDS011;27404;52.398;9.646;2023-06-22T07:20:08;6.45;;;5.07;;
8159;SDS011;27404;52.398;9.646;2023-06-22T07:22:36;6.38;;;4.70;;
8159;SDS011;27404;52.398;9.646;2023-06-22T07:25:06;7.57;;;4.80;;
8159;SDS011;27404;52.398;9.646;2023-06-22T07:28:16;6.97;;;4.90;;
8159;SDS011;27404;52.398;9.646;2023-06-22T07:30:27;10.40;;;5.20;;
8159;SDS011;27404;52.398;9.646;2023-06-22T07:32:53;7.65;;;4.45;;
8159;SDS011;27404;52.398;9.646;2023-06-22T07:35:19;7.65;;;4.82;;
8159;SDS011;27404;52.398;9.646;2023-06-22T07:37:44;7.63;;;4.43;;
8159;SDS011;27404;52.398;9.646;2023-06-22T07:40:10;7.47;;;5.32;;
8159;SDS011;27404;52.398;9.646;2023-06-22T07:42:36;8.70;;;5.30;;
8159;SDS011;27404;52.398;9.646;2023-06-22T07:45:06;9.68;;;5.70;;
8159;SDS011;27404;52.398;9.646;2023-06-22T07:47:35;7.65;;;5.80;;
8159;SDS011;27404;52.398;9.646;2023-06-22T07:50:00;9.40;;;6.03;;
8159;SDS011;27404;52.398;9.646;2023-06-22T07:52:27;8.93;;;6.03;;
8159;SDS011;27404;52.398;9.646;2023-06-22T07:54:53;9.02;;;5.57;;
8159;SDS011;27404;52.398;9.646;2023-06-22T07:57:19;6.80;;;5.88;;
8159;SDS011;27404;52.398;9.646;2023-06-22T07:59:45;6.78;;;6.03;;
8159;SDS011;27404;52.398;9.646;2023-06-22T08:02:11;7.78;;;5.57;;
8159;SDS011;27404;52.398;9.646;2023-06-22T08:04:36;7.65;;;5.78;;
8159;SDS011;27404;52.398;9.646;2023-06-22T08:07:02;8.88;;;5.20;;
8159;SDS011;27404;52.398;9.646;2023-06-22T08:09:29;6.15;;;5.45;;
8159;SDS011;27404;52.398;9.646;2023-06-22T08:11:56;6.63;;;5.20;;
8159;SDS011;27404;52.398;9.646;2023-06-22T08:14:22;5.55;;;5.00;;
8159;SDS011;27404;52.398;9.646;2023-06-22T08:16:49;6.90;;;5.13;;
8159;SDS011;27404;52.398;9.646;2023-06-22T08:19:14;7.60;;;4.82;;
8159;SDS011;27404;52.398;9.646;2023-06-22T08:21:39;7.40;;;5.70;;
8159;SDS011;27404;52.398;9.646;2023-06-22T08:24:05;7.95;;;5.40;;
8159;SDS011;27404;52.398;9.646;2023-06-22T08:26:32;6.95;;;4.97;;
8159;SDS011;27404;52.398;9.646;2023-06-22T08:29:01;9.95;;;5.60;;
8159;SDS011;27404;52.398;9.646;2023-06-22T08:31:26;8.00;;;5.72;;
8159;SDS011;27404;52.398;9.646;2023-06-22T08:33:52;7.38;;;5.40;;
8159;SDS011;27404;52.398;9.646;2023-06-22T08:36:17;6.10;;;5.50;;
8159;SDS011;27404;52.398;9.646;2023-06-22T08:38:43;8.07;;;5.38;;
8159;SDS011;27404;52.398;9.646;2023-06-22T08:41:10;5.60;;;5.05;;
8159;SDS011;27404;52.398;9.646;2023-06-22T08:43:35;6.90;;;5.05;;
8159;SDS011;27404;52.398;9.646;2023-06-22T08:46:01;6.88;;;5.78;;
8159;SDS011;27404;52.398;9.646;2023-06-22T08:48:27;6.13;;;5.38;;
8159;SDS011;27404;52.398;9.646;2023-06-22T08:50:54;6.72;;;5.90;;
8159;SDS011;27404;52.398;9.646;2023-06-22T08:53:20;7.13;;;5.85;;
8159;SDS011;27404;52.398;9.646;2023-06-22T08:55:46;7.05;;;5.40;;
8159;SDS011;27404;52.398;9.646;2023-06-22T08:58:11;6.00;;;5.38;;
8159;SDS011;27404;52.398;9.646;2023-06-22T09:00:36;6.47;;;5.18;;
8159;SDS011;27404;52.398;9.646;2023-06-22T09:03:02;7.38;;;5.45;;
8159;SDS011;27404;52.398;9.646;2023-06-22T09:05:28;7.97;;;5.97;;
8159;SDS011;27404;52.398;9.646;2023-06-22T09:07:56;7.78;;;5.75;;
8159;SDS011;27404;52.398;9.646;2023-06-22T09:10:21;8.27;;;6.32;;
8159;SDS011;27404;52.398;9.646;2023-06-22T09:12:47;11.82;;;6.57;;
8159;SDS011;27404;52.398;9.646;2023-06-22T09:15:12;7.70;;;6.70;;
8159;SDS011;27404;52.398;9.646;2023-06-22T09:17:38;7.65;;;6.15;;
8159;SDS011;27404;52.398;9.646;2023-06-22T09:20:06;7.10;;;6.07;;
8159;SDS011;27404;52.398;9.646;2023-06-22T09:22:32;10.32;;;7.05;;
8159;SDS011;27404;52.398;9.646;2023-06-22T09:24:58;7.55;;;5.40;;
8159;SDS011;27404;52.398;9.646;2023-06-22T09:27:25;6.78;;;6.07;;
8159;SDS011;27404;52.398;9.646;2023-06-22T09:29:50;10.50;;;6.60;;
8159;SDS011;27404;52.398;9.646;2023-06-22T09:32:15;8.48;;;6.25;;
8159;SDS011;27404;52.398;9.646;2023-06-22T09:34:41;8.32;;;6.05;;
8159;SDS011;27404;52.398;9.646;2023-06-22T09:37:06;10.43;;;6.80;;
8159;SDS011;27404;52.398;9.646;2023-06-22T09:39:32;8.82;;;6.35;;
8159;SDS011;27404;52.398;9.646;2023-06-22T09:42:00;8.00;;;6.82;;
8159;SDS011;27404;52.398;9.646;2023-06-22T09:44:26;9.70;;;7.15;;
8159;SDS011;27404;52.398;9.646;2023-06-22T09:46:51;10.13;;;7.20;;
8159;SDS011;27404;52.398;9.646;2023-06-22T09:49:17;10.40;;;7.15;;
8159;SDS011;27404;52.398;9.646;2023-06-22T09:51:42;7.43;;;6.35;;
8159;SDS011;27404;52.398;9.646;2023-06-22T09:54:08;7.82;;;6.93;;
8159;SDS011;27404;52.398;9.646;2023-06-22T09:56:33;8.48;;;7.40;;
8159;SDS011;27404;52.398;9.646;2023-06-22T09:58:59;8.50;;;7.57;;
8159;SDS011;27404;52.398;9.646;2023-06-22T10:01:24;10.15;;;7.80;;
8159;SDS011;27404;52.398;9.646;2023-06-22T10:03:51;8.90;;;8.00;;
8159;SDS011;27404;52.398;9.646;2023-06-22T10:06:19;8.93;;;7.88;;
8159;SDS011;27404;52.398;9.646;2023-06-22T10:08:45;8.70;;;7.22;;
8159;SDS011;27404;52.398;9.646;2023-06-22T10:11:10;10.15;;;8.02;;
8159;SDS011;27404;52.398;9.646;2023-06-22T10:13:36;14.35;;;8.68;;
8159;SDS011;27404;52.398;9.646;2023-06-22T10:16:01;14.60;;;8.23;;
8159;SDS011;27404;52.398;9.646;2023-06-22T10:18:27;10.60;;;6.82;;
8159;SDS011;27404;52.398;9.646;2023-06-22T10:20:52;10.15;;;8.35;;
8159;SDS011;27404;52.398;9.646;2023-06-22T10:23:18;10.65;;;8.00;;
8159;SDS011;27404;52.398;9.646;2023-06-22T10:25:44;13.32;;;9.25;;
8159;SDS011;27404;52.398;9.646;2023-06-22T10:28:10;9.40;;;8.48;;
8159;SDS011;27404;52.398;9.646;2023-06-22T10:30:37;10.65;;;8.13;;
8159;SDS011;27404;52.398;9.646;2023-06-22T10:33:03;9.90;;;7.95;;
8159;SDS011;27404;52.398;9.646;2023-06-22T10:35:29;10.30;;;8.38;;
8159;SDS011;27404;52.398;9.646;2023-06-22T10:37:54;12.80;;;9.98;;
8159;SDS011;27404;52.398;9.646;2023-06-22T10:40:21;12.13;;;9.18;;
8159;SDS011;27404;52.398;9.646;2023-06-22T10:42:46;10.55;;;9.15;;
8159;SDS011;27404;52.398;9.646;2023-06-22T10:45:12;12.38;;;8.88;;
8159;SDS011;27404;52.398;9.646;2023-06-22T10:47:38;8.95;;;8.07;;
8159;SDS011;27404;52.398;9.646;2023-06-22T10:50:04;9.60;;;8.63;;
8159;SDS011;27404;52.398;9.646;2023-06-22T10:52:30;16.67;;;9.43;;
8159;SDS011;27404;52.398;9.646;2023-06-22T10:54:56;10.23;;;8.90;;
8159;SDS011;27404;52.398;9.646;2023-06-22T10:57:21;11.05;;;9.38;;
8159;SDS011;27404;52.398;9.646;2023-06-22T10:59:47;11.05;;;8.82;;
8159;SDS011;27404;52.398;9.646;2023-06-22T11:02:12;10.60;;;9.45;;
8159;SDS011;27404;52.398;9.646;2023-06-22T11:04:38;11.07;;;8.80;;
8159;SDS011;27404;52.398;9.646;2023-06-22T11:07:03;9.57;;;7.85;;
8159;SDS011;27404;52.398;9.646;2023-06-22T11:09:29;9.30;;;8.27;;
8159;SDS011;27404;52.398;9.646;2023-06-22T11:11:55;12.50;;;9.07;;
8159;SDS011;27404;52.398;9.646;2023-06-22T11:14:21;12.90;;;9.82;;
8159;SDS011;27404;52.398;9.646;2023-06-22T11:16:47;11.15;;;9.95;;
8159;SDS011;27404;52.398;9.646;2023-06-22T11:19:13;14.30;;;9.43;;
8159;SDS011;27404;52.398;9.646;2023-06-22T11:21:39;11.77;;;9.43;;
8159;SDS011;27404;52.398;9.646;2023-06-22T11:24:04;11.38;;;8.95;;
8159;SDS011;27404;52.398;9.646;2023-06-22T11:26:30;10.25;;;8.95;;
8159;SDS011;27404;52.398;9.646;2023-06-22T11:28:57;10.57;;;8.93;;
8159;SDS011;27404;52.398;9.646;2023-06-22T11:31:23;11.50;;;8.05;;
8159;SDS011;27404;52.398;9.646;2023-06-22T11:33:49;9.75;;;8.50;;
8159;SDS011;27404;52.398;9.646;2023-06-22T11:36:14;9.10;;;7.97;;
8159;SDS011;27404;52.398;9.646;2023-06-22T11:38:40;10.20;;;8.85;;
8159;SDS011;27404;52.398;9.646;2023-06-22T11:41:06;14.40;;;8.38;;
8159;SDS011;27404;52.398;9.646;2023-06-22T11:43:32;10.73;;;9.63;;
8159;SDS011;27404;52.398;9.646;2023-06-22T11:45:59;10.73;;;9.32;;
8159;SDS011;27404;52.398;9.646;2023-06-22T11:48:24;11.43;;;10.20;;
8159;SDS011;27404;52.398;9.646;2023-06-22T11:50:50;11.52;;;9.80;;
8159;SDS011;27404;52.398;9.646;2023-06-22T11:53:16;13.02;;;9.32;;
8159;SDS011;27404;52.398;9.646;2023-06-22T11:55:42;11.77;;;9.38;;
8159;SDS011;27404;52.398;9.646;2023-06-22T11:58:08;10.68;;;8.23;;
8159;SDS011;27404;52.398;9.646;2023-06-22T12:00:34;10.55;;;9.35;;
8159;SDS011;27404;52.398;9.646;2023-06-22T12:02:59;12.63;;;9.40;;
8159;SDS011;27404;52.398;9.646;2023-06-22T12:05:25;11.43;;;10.15;;
8159;SDS011;27404;52.398;9.646;2023-06-22T12:07:53;11.95;;;9.80;;
8159;SDS011;27404;52.398;9.646;2023-06-22T12:10:19;10.23;;;9.13;;
8159;SDS011;27404;52.398;9.646;2023-06-22T12:12:45;15.50;;;9.38;;
8159;SDS011;27404;52.398;9.646;2023-06-22T12:15:11;11.95;;;9.43;;
8159;SDS011;27404;52.398;9.646;2023-06-22T12:17:36;11.60;;;9.15;;
8159;SDS011;27404;52.398;9.646;2023-06-22T12:20:02;11.25;;;10.05;;
8159;SDS011;27404;52.398;9.646;2023-06-22T12:22:31;10.57;;;9.48;;
8159;SDS011;27404;52.398;9.646;2023-06-22T12:24:57;13.38;;;10.20;;
8159;SDS011;27404;52.398;9.646;2023-06-22T12:27:22;10.70;;;9.07;;
8159;SDS011;27404;52.398;9.646;2023-06-22T12:29:48;10.88;;;9.23;;
8159;SDS011;27404;52.398;9.646;2023-06-22T12:32:13;12.15;;;9.23;;
8159;SDS011;27404;52.398;9.646;2023-06-22T12:34:39;9.73;;;8.82;;
8159;SDS011;27404;52.398;9.646;2023-06-22T12:37:06;12.93;;;9.38;;
8159;SDS011;27404;52.398;9.646;2023-06-22T12:39:32;10.70;;;8.68;;
8159;SDS011;27404;52.398;9.646;2023-06-22T12:41:57;10.60;;;9.07;;
8159;SDS011;27404;52.398;9.646;2023-06-22T12:44:23;13.93;;;8.60;;
8159;SDS011;27404;52.398;9.646;2023-06-22T12:46:49;9.63;;;8.63;;
8159;SDS011;27404;52.398;9.646;2023-06-22T12:49:14;15.32;;;10.07;;
8159;SDS011;27404;52.398;9.646;2023-06-22T12:51:40;10.18;;;9.13;;
8159;SDS011;27404;52.398;9.646;2023-06-22T12:54:09;9.80;;;8.43;;
8159;SDS011;27404;52.398;9.646;2023-06-22T12:56:36;11.75;;;9.85;;
8159;SDS011;27404;52.398;9.646;2023-06-22T12:59:03;9.95;;;9.00;;
8159;SDS011;27404;52.398;9.646;2023-06-22T13:01:29;10.23;;;9.18;;
8159;SDS011;27404;52.398;9.646;2023-06-22T13:03:55;15.93;;;10.07;;
8159;SDS011;27404;52.398;9.646;2023-06-22T13:06:21;10.52;;;8.80;;
8159;SDS011;27404;52.398;9.646;2023-06-22T13:08:47;12.52;;;9.95;;
8159;SDS011;27404;52.398;9.646;2023-06-22T13:11:12;8.45;;;7.32;;
8159;SDS011;27404;52.398;9.646;2023-06-22T13:13:38;11.15;;;8.68;;
8159;SDS011;27404;52.398;9.646;2023-06-22T13:16:04;12.32;;;9.80;;
8159;SDS011;27404;52.398;9.646;2023-06-22T13:18:30;12.70;;;9.75;;
8159;SDS011;27404;52.398;9.646;2023-06-22T13:20:55;13.27;;;9.13;;
8159;SDS011;27404;52.398;9.646;2023-06-22T13:23:21;11.40;;;8.93;;
8159;SDS011;27404;52.398;9.646;2023-06-22T13:25:47;11.00;;;9.05;;
8159;SDS011;27404;52.398;9.646;2023-06-22T13:28:12;10.80;;;9.52;;
8159;SDS011;27404;52.398;9.646;2023-06-22T13:30:41;10.43;;;9.32;;
8159;SDS011;27404;52.398;9.646;2023-06-22T13:33:08;9.07;;;8.15;;
8159;SDS011;27404;52.398;9.646;2023-06-22T13:35:34;12.55;;;9.80;;
8159;SDS011;27404;52.398;9.646;2023-06-22T13:38:03;10.45;;;9.23;;
8159;SDS011;27404;52.398;9.646;2023-06-22T13:40:31;11.35;;;10.15;;
8159;SDS011;27404;52.398;9.646;2023-06-22T13:42:56;10.23;;;8.75;;
8159;SDS011;27404;52.398;9.646;2023-06-22T13:45:22;9.35;;;8.45;;
8159;SDS011;27404;52.398;9.646;2023-06-22T13:47:47;10.82;;;9.35;;
8159;SDS011;27404;52.398;9.646;2023-06-22T13:50:13;10.43;;;8.52;;
8159;SDS011;27404;52.398;9.646;2023-06-22T13:52:39;9.60;;;8.63;;
8159;SDS011;27404;52.398;9.646;2023-06-22T13:55:04;11.57;;;9.13;;
8159;SDS011;27404;52.398;9.646;2023-06-22T13:57:32;9.93;;;8.93;;
8159;SDS011;27404;52.398;9.646;2023-06-22T13:59:58;11.40;;;8.85;;
8159;SDS011;27404;52.398;9.646;2023-06-22T14:02:23;11.02;;;9.20;;
8159;SDS011;27404;52.398;9.646;2023-06-22T14:04:48;11.07;;;9.20;;
8159;SDS011;27404;52.398;9.646;2023-06-22T14:07:14;10.98;;;9.45;;
8159;SDS011;27404;52.398;9.646;2023-06-22T14:09:39;9.82;;;8.82;;
8159;SDS011;27404;52.398;9.646;2023-06-22T14:12:05;10.95;;;9.75;;
8159;SDS011;27404;52.398;9.646;2023-06-22T14:14:32;14.82;;;9.57;;
8159;SDS011;27404;52.398;9.646;2023-06-22T14:16:58;11.48;;;10.38;;
8159;SDS011;27404;52.398;9.646;2023-06-22T14:19:24;13.50;;;11.32;;
8159;SDS011;27404;52.398;9.646;2023-06-22T14:21:49;12.73;;;11.27;;
8159;SDS011;27404;52.398;9.646;2023-06-22T14:24:15;13.57;;;12.18;;
8159;SDS011;27404;52.398;9.646;2023-06-22T14:26:40;14.07;;;11.55;;
8159;SDS011;27404;52.398;9.646;2023-06-22T14:29:06;14.02;;;12.23;;
8159;SDS011;27404;52.398;9.646;2023-06-22T14:31:31;13.45;;;12.05;;
8159;SDS011;27404;52.398;9.646;2023-06-22T14:33:58;15.38;;;13.00;;
8159;SDS011;27404;52.398;9.646;2023-06-22T14:36:23;14.70;;;13.20;;
8159;SDS011;27404;52.398;9.646;2023-06-22T14:38:48;15.05;;;13.35;;
8159;SDS011;27404;52.398;9.646;2023-06-22T14:41:14;13.80;;;12.40;;
8159;SDS011;27404;52.398;9.646;2023-06-22T14:43:45;13.00;;;11.63;;
8159;SDS011;27404;52.398;9.646;2023-06-22T14:46:12;12.50;;;11.10;;